Time;durP1;ratioP1;P1;durP2;ratioP2;P2;SDS_P1;SDS_P2;PMS_P1;PMS_P2;Temp;Humidity;BMP_temperature;BMP_pressure;BME280_temperature;BME280_humidity;BME280_pressure;Samples;Min_cycle;Max_cycle;Signal;HPM_P1;HPM_P2
2021/09/09 00:00:28;;;;;;;5.78;3.53;;;;;;;;;;5092167;28;20036;-68
2021/09/09 00:02:54;;;;;;;7.43;2.95;;;;;;;;;;5092271;28;20480;-67
2021/09/09 00:05:20;;;;;;;7.80;3.03;;;;;;;;;;5092283;28;20043;-68
2021/09/09 00:07:46;;;;;;;5.15;3.13;;;;;;;;;;5092382;28;20029;-68
2021/09/09 00:10:12;;;;;;;10.15;3.03;;;;;;;;;;5092265;28;20070;-67
2021/09/09 00:12:38;;;;;;;10.98;3.17;;;;;;;;;;5092111;28;20538;-67
2021/09/09 00:15:04;;;;;;;5.18;3.53;;;;;;;;;;5092238;28;20033;-68
2021/09/09 00:17:30;;;;;;;7.63;3.20;;;;;;;;;;5092098;28;20491;-68
2021/09/09 00:19:56;;;;;;;6.00;3.30;;;;;;;;;;5092128;28;20056;-68
2021/09/09 00:22:22;;;;;;;7.47;3.53;;;;;;;;;;5092195;28;20059;-68
2021/09/09 00:24:48;;;;;;;6.50;3.47;;;;;;;;;;5076948;28;20408;-68
2021/09/09 00:27:15;;;;;;;6.30;2.88;;;;;;;;;;5095966;28;20032;-69
2021/09/09 00:29:41;;;;;;;9.23;3.08;;;;;;;;;;5095505;28;20040;-68
2021/09/09 00:32:07;;;;;;;8.05;2.83;;;;;;;;;;5095504;28;20078;-68
2021/09/09 00:34:33;;;;;;;7.40;3.63;;;;;;;;;;5095778;28;20071;-68
2021/09/09 00:36:59;;;;;;;4.68;3.30;;;;;;;;;;5095779;28;20055;-68
2021/09/09 00:39:25;;;;;;;9.98;3.25;;;;;;;;;;5095610;28;20082;-68
2021/09/09 00:41:52;;;;;;;10.35;3.03;;;;;;;;;;5095693;28;20059;-67
2021/09/09 00:44:22;;;;;;;10.30;2.90;;;;;;;;;;5095246;28;20492;-67
2021/09/09 00:47:01;;;;;;;8.93;3.30;;;;;;;;;;5095441;28;20032;-67
2021/09/09 00:49:27;;;;;;;12.73;3.22;;;;;;;;;;5095477;28;20124;-68
2021/09/09 00:51:53;;;;;;;5.63;3.00;;;;;;;;;;5095248;28;20036;-68
2021/09/09 00:54:20;;;;;;;7.15;3.17;;;;;;;;;;5094923;28;20115;-68
2021/09/09 00:56:46;;;;;;;4.53;2.78;;;;;;;;;;5094958;28;20058;-68
2021/09/09 00:59:12;;;;;;;4.00;2.88;;;;;;;;;;5092353;28;20036;-68
2021/09/09 01:01:38;;;;;;;10.07;3.10;;;;;;;;;;5092346;28;20043;-68
2021/09/09 01:04:04;;;;;;;9.27;3.20;;;;;;;;;;5092448;28;20044;-68
2021/09/09 01:06:30;;;;;;;8.38;3.30;;;;;;;;;;5094681;28;20083;-67
2021/09/09 01:08:56;;;;;;;4.88;3.00;;;;;;;;;;5094618;28;20035;-68
2021/09/09 01:11:22;;;;;;;6.70;2.97;;;;;;;;;;5094540;28;20388;-67
2021/09/09 01:13:49;;;;;;;7.32;2.92;;;;;;;;;;5094564;28;20028;-67
2021/09/09 01:16:15;;;;;;;8.23;3.38;;;;;;;;;;5094787;28;20075;-68
2021/09/09 01:18:41;;;;;;;5.95;3.13;;;;;;;;;;5095002;28;20361;-67
2021/09/09 01:21:07;;;;;;;7.38;3.42;;;;;;;;;;5094544;28;20469;-68
2021/09/09 01:23:34;;;;;;;8.07;3.10;;;;;;;;;;5094215;28;20125;-68
2021/09/09 01:26:00;;;;;;;9.38;3.25;;;;;;;;;;5094364;28;20081;-68
2021/09/09 01:28:26;;;;;;;5.90;3.08;;;;;;;;;;5094103;28;20547;-68
2021/09/09 01:30:52;;;;;;;6.68;2.78;;;;;;;;;;5094518;28;20111;-68
2021/09/09 01:33:18;;;;;;;7.55;2.63;;;;;;;;;;5094366;28;20143;-68
2021/09/09 01:35:44;;;;;;;11.75;3.25;;;;;;;;;;5094022;28;20470;-68
2021/09/09 01:38:20;;;;;;;6.68;2.78;;;;;;;;;;5094014;28;20103;-68
2021/09/09 01:40:46;;;;;;;4.18;2.75;;;;;;;;;;5094276;28;20040;-67
2021/09/09 01:43:12;;;;;;;6.68;3.30;;;;;;;;;;5093917;28;20032;-68
2021/09/09 01:45:38;;;;;;;5.70;2.65;;;;;;;;;;5094517;28;20109;-68
2021/09/09 01:48:04;;;;;;;5.85;3.28;;;;;;;;;;5094072;28;20082;-67
2021/09/09 01:50:30;;;;;;;7.05;3.25;;;;;;;;;;5094087;28;20461;-68
2021/09/09 01:52:56;;;;;;;10.82;3.20;;;;;;;;;;5093931;28;20115;-68
2021/09/09 01:55:22;;;;;;;6.80;3.10;;;;;;;;;;5094169;28;20435;-68
2021/09/09 01:57:48;;;;;;;7.38;3.50;;;;;;;;;;5093814;28;20077;-68
2021/09/09 02:00:15;;;;;;;6.80;2.78;;;;;;;;;;5094161;28;20446;-68
2021/09/09 02:02:41;;;;;;;5.18;3.13;;;;;;;;;;5093769;28;20472;-68
2021/09/09 02:05:07;;;;;;;6.25;3.38;;;;;;;;;;5093622;28;20401;-68
2021/09/09 02:07:33;;;;;;;5.03;2.80;;;;;;;;;;5093734;28;20028;-68
2021/09/09 02:09:59;;;;;;;9.68;3.08;;;;;;;;;;5094591;28;20080;-67
2021/09/09 02:12:26;;;;;;;8.95;2.80;;;;;;;;;;5094020;28;20043;-68
2021/09/09 02:14:52;;;;;;;9.65;2.80;;;;;;;;;;5093498;28;20386;-67
2021/09/09 02:17:18;;;;;;;7.68;3.15;;;;;;;;;;5093397;28;20032;-68
2021/09/09 02:19:44;;;;;;;10.70;3.42;;;;;;;;;;5093513;28;20492;-67
2021/09/09 02:22:10;;;;;;;9.27;2.78;;;;;;;;;;5093439;28;20036;-68
2021/09/09 02:24:36;;;;;;;7.22;2.90;;;;;;;;;;5093408;28;20075;-68
2021/09/09 02:27:02;;;;;;;9.93;2.90;;;;;;;;;;5093493;28;20515;-68
2021/09/09 02:29:28;;;;;;;7.82;2.50;;;;;;;;;;5093713;28;20039;-68
2021/09/09 02:31:54;;;;;;;8.02;2.60;;;;;;;;;;5093321;28;20024;-69
2021/09/09 02:34:20;;;;;;;8.15;2.95;;;;;;;;;;5093454;28;20111;-68
2021/09/09 02:36:46;;;;;;;8.35;2.90;;;;;;;;;;5093309;28;20114;-68
2021/09/09 02:39:12;;;;;;;6.03;2.80;;;;;;;;;;5093396;28;20043;-68
2021/09/09 02:41:38;;;;;;;7.85;3.10;;;;;;;;;;5093258;28;20028;-68
2021/09/09 02:44:04;;;;;;;6.78;3.00;;;;;;;;;;5093058;28;20044;-67
2021/09/09 02:46:30;;;;;;;10.52;3.05;;;;;;;;;;5092955;28;20111;-67
2021/09/09 02:48:56;;;;;;;9.75;2.83;;;;;;;;;;5093076;28;20048;-68
2021/09/09 02:51:22;;;;;;;6.88;2.85;;;;;;;;;;5092956;28;20043;-68
2021/09/09 02:53:48;;;;;;;5.20;2.90;;;;;;;;;;5092916;28;20036;-68
2021/09/09 02:56:14;;;;;;;4.88;3.10;;;;;;;;;;5092834;28;20043;-68
2021/09/09 02:58:40;;;;;;;9.07;3.10;;;;;;;;;;5093139;28;20047;-67
2021/09/09 03:01:06;;;;;;;7.28;2.95;;;;;;;;;;5093304;28;20028;-67
2021/09/09 03:03:32;;;;;;;7.70;2.90;;;;;;;;;;5092824;28;20118;-68
2021/09/09 03:05:58;;;;;;;10.60;2.88;;;;;;;;;;5093032;28;20166;-68
2021/09/09 03:08:24;;;;;;;7.88;3.13;;;;;;;;;;5092805;28;20109;-68
2021/09/09 03:10:50;;;;;;;5.45;3.10;;;;;;;;;;5092904;28;20499;-68
2021/09/09 03:13:16;;;;;;;9.70;3.20;;;;;;;;;;5093013;28;21159;-67
2021/09/09 03:15:42;;;;;;;11.13;3.50;;;;;;;;;;5092921;28;20032;-68
2021/09/09 03:18:08;;;;;;;7.82;3.30;;;;;;;;;;5092697;28;20035;-68
2021/09/09 03:20:34;;;;;;;9.95;3.47;;;;;;;;;;5092589;28;20116;-68
2021/09/09 03:23:00;;;;;;;11.52;3.70;;;;;;;;;;5092157;28;20139;-68
2021/09/09 03:25:26;;;;;;;6.18;2.95;;;;;;;;;;5092322;28;20388;-68
2021/09/09 03:27:52;;;;;;;6.40;3.05;;;;;;;;;;5092485;28;20039;-69
2021/09/09 03:30:18;;;;;;;6.45;2.72;;;;;;;;;;5092796;28;20036;-68
2021/09/09 03:32:45;;;;;;;8.25;3.10;;;;;;;;;;5092665;28;20032;-68
2021/09/09 03:35:11;;;;;;;9.77;3.72;;;;;;;;;;5092622;28;20036;-69
2021/09/09 03:37:37;;;;;;;5.60;2.70;;;;;;;;;;5092572;28;20035;-68
2021/09/09 03:40:03;;;;;;;10.45;2.90;;;;;;;;;;5092601;28;20085;-69
2021/09/09 03:42:29;;;;;;;5.53;3.10;;;;;;;;;;5092549;28;20029;-68
2021/09/09 03:44:55;;;;;;;14.27;3.08;;;;;;;;;;5092501;28;20048;-68
2021/09/09 03:47:21;;;;;;;6.97;3.25;;;;;;;;;;5092761;28;20028;-68
2021/09/09 03:49:47;;;;;;;6.35;3.38;;;;;;;;;;5092224;28;20666;-68
2021/09/09 03:52:13;;;;;;;8.65;3.70;;;;;;;;;;5092242;28;20032;-68
2021/09/09 03:54:39;;;;;;;8.00;3.28;;;;;;;;;;5092584;28;20043;-68
2021/09/09 03:57:05;;;;;;;8.80;3.40;;;;;;;;;;5092613;28;20028;-69
2021/09/09 03:59:31;;;;;;;6.10;3.33;;;;;;;;;;5094758;28;20036;-68
2021/09/09 04:01:59;;;;;;;11.00;3.50;;;;;;;;;;5096054;28;20103;-68
2021/09/09 04:04:25;;;;;;;6.28;3.30;;;;;;;;;;5095847;28;20048;-68
2021/09/09 04:06:51;;;;;;;5.75;3.20;;;;;;;;;;5096068;28;20028;-68
2021/09/09 04:09:17;;;;;;;5.35;3.28;;;;;;;;;;5096005;28;20102;-68
2021/09/09 04:11:43;;;;;;;6.55;3.25;;;;;;;;;;5096034;28;20442;-68
2021/09/09 04:14:11;;;;;;;9.63;3.30;;;;;;;;;;5096131;28;20032;-68
2021/09/09 04:16:37;;;;;;;5.25;3.50;;;;;;;;;;5095922;28;20036;-67
2021/09/09 04:19:03;;;;;;;5.72;3.38;;;;;;;;;;5095917;28;20579;-68
2021/09/09 04:21:29;;;;;;;7.30;3.60;;;;;;;;;;5095908;28;20408;-68
2021/09/09 04:23:55;;;;;;;9.05;3.25;;;;;;;;;;5095412;28;20496;-68
2021/09/09 04:26:21;;;;;;;11.80;3.45;;;;;;;;;;5095678;28;20028;-69
2021/09/09 04:28:47;;;;;;;13.02;4.22;;;;;;;;;;5095856;28;20028;-67
2021/09/09 04:31:13;;;;;;;5.53;3.30;;;;;;;;;;5095796;28;20357;-68
2021/09/09 04:33:39;;;;;;;7.40;3.60;;;;;;;;;;5095522;28;20508;-68
2021/09/09 04:36:05;;;;;;;9.68;3.05;;;;;;;;;;5095795;28;20028;-69
2021/09/09 04:38:31;;;;;;;14.48;3.45;;;;;;;;;;5095665;28;20042;-68
2021/09/09 04:40:57;;;;;;;8.05;3.13;;;;;;;;;;5095580;28;20059;-68
2021/09/09 04:43:23;;;;;;;7.57;3.60;;;;;;;;;;5095521;28;20506;-68
2021/09/09 04:45:49;;;;;;;11.02;3.55;;;;;;;;;;5095402;28;20387;-67
2021/09/09 04:48:15;;;;;;;13.27;3.67;;;;;;;;;;5095235;28;20044;-68
2021/09/09 04:50:41;;;;;;;12.30;3.78;;;;;;;;;;5095224;28;20039;-68
2021/09/09 04:53:07;;;;;;;7.95;3.70;;;;;;;;;;5095277;28;20028;-69
2021/09/09 04:55:34;;;;;;;6.10;3.53;;;;;;;;;;5095516;28;20090;-68
2021/09/09 04:58:00;;;;;;;6.38;3.47;;;;;;;;;;5095120;28;20025;-69
2021/09/09 05:00:26;;;;;;;10.20;3.70;;;;;;;;;;5094832;28;20090;-68
2021/09/09 05:02:52;;;;;;;9.45;3.83;;;;;;;;;;5095132;28;20071;-68
2021/09/09 05:05:18;;;;;;;10.45;3.58;;;;;;;;;;5095148;28;20044;-68
2021/09/09 05:07:44;;;;;;;12.15;4.03;;;;;;;;;;5097103;28;20028;-68
2021/09/09 05:10:10;;;;;;;13.93;3.40;;;;;;;;;;5094928;28;20098;-68
2021/09/09 05:12:36;;;;;;;9.98;4.15;;;;;;;;;;5095051;28;20430;-69
2021/09/09 05:15:03;;;;;;;9.75;3.90;;;;;;;;;;5094783;28;20059;-68
2021/09/09 05:17:29;;;;;;;8.57;4.63;;;;;;;;;;5094767;28;20044;-69
2021/09/09 05:19:55;;;;;;;10.07;3.78;;;;;;;;;;5094769;28;20102;-68
2021/09/09 05:22:21;;;;;;;8.13;4.20;;;;;;;;;;5094801;28;20028;-68
2021/09/09 05:24:47;;;;;;;9.10;3.75;;;;;;;;;;5094521;28;20126;-68
2021/09/09 05:27:13;;;;;;;6.55;4.10;;;;;;;;;;5093857;28;20106;-67
2021/09/09 05:29:39;;;;;;;11.35;4.18;;;;;;;;;;5094412;28;20039;-67
2021/09/09 05:32:05;;;;;;;13.95;3.80;;;;;;;;;;5094500;28;20032;-67
2021/09/09 05:34:32;;;;;;;10.45;3.80;;;;;;;;;;5094636;28;20040;-67
2021/09/09 05:36:58;;;;;;;11.68;3.53;;;;;;;;;;5094729;28;20082;-69
2021/09/09 05:39:24;;;;;;;9.25;4.00;;;;;;;;;;5093933;28;20099;-67
2021/09/09 05:41:50;;;;;;;9.57;3.92;;;;;;;;;;5093911;28;20025;-68
2021/09/09 05:44:16;;;;;;;10.63;3.92;;;;;;;;;;5093880;28;20048;-68
2021/09/09 05:46:42;;;;;;;7.20;3.70;;;;;;;;;;5093938;28;20036;-66
2021/09/09 05:49:08;;;;;;;11.23;3.88;;;;;;;;;;5093950;28;20051;-67
2021/09/09 05:51:34;;;;;;;12.63;3.70;;;;;;;;;;5093159;28;20217;-67
2021/09/09 05:54:00;;;;;;;17.30;5.13;;;;;;;;;;5094186;28;20071;-68
2021/09/09 05:56:26;;;;;;;15.60;3.92;;;;;;;;;;5094117;28;20476;-67
2021/09/09 05:58:52;;;;;;;19.48;4.07;;;;;;;;;;5094210;28;20074;-68
2021/09/09 06:01:19;;;;;;;7.43;3.88;;;;;;;;;;5094071;28;20036;-67
2021/09/09 06:03:45;;;;;;;8.23;3.60;;;;;;;;;;5093966;28;20133;-67
2021/09/09 06:06:15;;;;;;;11.10;3.90;;;;;;;;;;5093758;28;20032;-67
2021/09/09 06:08:42;;;;;;;11.70;4.13;;;;;;;;;;5093791;28;20491;-67
2021/09/09 06:11:10;;;;;;;15.30;3.65;;;;;;;;;;5093775;28;20036;-68
2021/09/09 06:13:36;;;;;;;9.30;3.38;;;;;;;;;;5093812;28;20123;-67
2021/09/09 06:16:02;;;;;;;8.82;3.95;;;;;;;;;;5093854;28;20484;-67
2021/09/09 06:18:28;;;;;;;13.52;4.00;;;;;;;;;;5093900;28;20075;-68
2021/09/09 06:20:54;;;;;;;9.43;3.80;;;;;;;;;;5092850;28;20032;-68
2021/09/09 06:23:20;;;;;;;13.23;3.88;;;;;;;;;;5093558;28;20085;-68
2021/09/09 06:25:46;;;;;;;10.65;3.53;;;;;;;;;;5093577;28;20032;-67
2021/09/09 06:28:12;;;;;;;11.20;3.40;;;;;;;;;;5093495;28;20111;-67
2021/09/09 06:30:38;;;;;;;13.18;3.60;;;;;;;;;;5093191;28;20467;-68
2021/09/09 06:33:04;;;;;;;14.48;3.60;;;;;;;;;;5093317;28;20115;-67
2021/09/09 06:35:30;;;;;;;12.95;3.90;;;;;;;;;;5092847;28;20546;-67
2021/09/09 06:37:57;;;;;;;12.98;3.83;;;;;;;;;;5092944;28;20396;-69
2021/09/09 06:40:23;;;;;;;10.57;4.13;;;;;;;;;;5091948;28;20071;-69
2021/09/09 06:42:49;;;;;;;14.43;3.75;;;;;;;;;;5090922;28;20487;-69
2021/09/09 06:45:15;;;;;;;10.48;3.60;;;;;;;;;;5092699;28;20080;-69
2021/09/09 06:47:41;;;;;;;15.35;4.00;;;;;;;;;;5092583;28;20032;-68
2021/09/09 06:50:08;;;;;;;7.68;3.38;;;;;;;;;;5092408;28;20048;-70
2021/09/09 06:52:34;;;;;;;13.05;3.88;;;;;;;;;;5093044;28;20028;-69
2021/09/09 06:55:00;;;;;;;8.85;3.90;;;;;;;;;;5093083;28;20040;-69
2021/09/09 06:57:26;;;;;;;11.48;3.92;;;;;;;;;;5093261;28;20035;-69
2021/09/09 06:59:52;;;;;;;9.77;3.53;;;;;;;;;;5093364;28;20054;-69
2021/09/09 07:02:18;;;;;;;9.77;3.25;;;;;;;;;;5092923;28;20055;-69
2021/09/09 07:04:44;;;;;;;7.00;3.25;;;;;;;;;;5092736;28;20098;-70
2021/09/09 07:07:10;;;;;;;14.68;3.70;;;;;;;;;;5092885;28;20052;-69
2021/09/09 07:09:36;;;;;;;15.98;3.67;;;;;;;;;;5093253;28;20032;-69
2021/09/09 07:12:02;;;;;;;10.82;3.78;;;;;;;;;;5093064;28;20036;-69
2021/09/09 07:14:28;;;;;;;13.52;3.40;;;;;;;;;;5093168;28;20032;-69
2021/09/09 07:16:55;;;;;;;7.70;2.97;;;;;;;;;;5093053;28;20037;-69
2021/09/09 07:19:21;;;;;;;6.72;2.92;;;;;;;;;;5093085;28;20036;-69
2021/09/09 07:21:50;;;;;;;7.38;2.67;;;;;;;;;;5093142;28;20032;-69
2021/09/09 07:24:18;;;;;;;6.55;2.97;;;;;;;;;;5092914;28;20048;-69
2021/09/09 07:26:45;;;;;;;6.00;3.03;;;;;;;;;;5092969;28;20032;-70
2021/09/09 07:29:13;;;;;;;8.30;3.00;;;;;;;;;;5093442;28;20036;-69
2021/09/09 07:31:39;;;;;;;9.70;2.80;;;;;;;;;;5092750;28;20086;-69
2021/09/09 07:34:05;;;;;;;11.82;3.75;;;;;;;;;;5097030;28;20119;-69
2021/09/09 07:36:31;;;;;;;11.60;3.22;;;;;;;;;;5097110;28;20063;-69
2021/09/09 07:38:57;;;;;;;9.73;2.95;;;;;;;;;;5097247;28;20053;-70
2021/09/09 07:41:23;;;;;;;8.18;3.08;;;;;;;;;;5096851;28;20036;-69
2021/09/09 07:43:49;;;;;;;4.82;2.70;;;;;;;;;;5096998;28;20051;-69
2021/09/09 07:46:15;;;;;;;13.38;2.70;;;;;;;;;;5096959;28;20523;-69
2021/09/09 07:48:41;;;;;;;8.43;2.42;;;;;;;;;;5096942;28;20512;-69
2021/09/09 07:51:07;;;;;;;8.55;2.70;;;;;;;;;;5096588;28;20028;-69
2021/09/09 07:53:33;;;;;;;9.50;2.78;;;;;;;;;;5097065;28;20491;-69
2021/09/09 07:55:59;;;;;;;14.77;2.75;;;;;;;;;;5097040;28;20031;-69
2021/09/09 07:58:25;;;;;;;10.70;3.10;;;;;;;;;;5096966;28;20055;-69
2021/09/09 08:00:52;;;;;;;11.88;2.80;;;;;;;;;;5096890;28;20488;-69
2021/09/09 08:03:18;;;;;;;8.50;2.45;;;;;;;;;;5096384;28;20032;-69
2021/09/09 08:05:44;;;;;;;7.13;2.70;;;;;;;;;;5096641;28;20040;-69
2021/09/09 08:08:09;;;;;;;12.02;3.05;;;;;;;;;;5096338;28;20430;-69
2021/09/09 08:10:36;;;;;;;8.50;2.70;;;;;;;;;;5096761;28;20036;-69
2021/09/09 08:13:02;;;;;;;5.82;2.90;;;;;;;;;;5096613;28;20036;-69
2021/09/09 08:15:28;;;;;;;17.63;2.90;;;;;;;;;;5096339;28;20028;-69
2021/09/09 08:17:54;;;;;;;8.23;2.88;;;;;;;;;;5096629;28;20044;-69
2021/09/09 08:20:20;;;;;;;14.73;3.33;;;;;;;;;;5096570;28;20028;-69
2021/09/09 08:22:46;;;;;;;5.32;2.78;;;;;;;;;;5096264;28;20032;-70
2021/09/09 08:25:12;;;;;;;8.07;2.78;;;;;;;;;;5096467;28;20049;-69
2021/09/09 08:27:38;;;;;;;7.63;2.75;;;;;;;;;;5095989;28;20048;-70
2021/09/09 08:30:05;;;;;;;6.35;2.70;;;;;;;;;;5096181;28;20036;-69
2021/09/09 08:32:31;;;;;;;6.68;2.80;;;;;;;;;;5096157;28;20047;-69
2021/09/09 08:34:58;;;;;;;13.40;2.83;;;;;;;;;;5096008;28;20024;-69
2021/09/09 08:37:24;;;;;;;7.72;2.70;;;;;;;;;;5095996;28;20036;-69
2021/09/09 08:39:50;;;;;;;10.93;2.90;;;;;;;;;;5095661;28;20036;-69
2021/09/09 08:42:18;;;;;;;8.70;2.80;;;;;;;;;;5096076;28;20473;-69
2021/09/09 08:44:44;;;;;;;11.70;3.20;;;;;;;;;;5095119;28;20050;-69
2021/09/09 08:47:11;;;;;;;12.80;3.20;;;;;;;;;;5096042;28;20484;-69
2021/09/09 08:49:37;;;;;;;7.55;2.60;;;;;;;;;;5094682;28;20052;-69
2021/09/09 08:52:05;;;;;;;22.17;3.60;;;;;;;;;;5094364;28;20553;-69
2021/09/09 08:54:32;;;;;;;6.28;2.65;;;;;;;;;;5094837;28;20081;-69
2021/09/09 08:56:58;;;;;;;8.25;2.50;;;;;;;;;;5094661;28;20055;-69
2021/09/09 08:59:24;;;;;;;8.35;2.90;;;;;;;;;;5094246;28;20043;-69
2021/09/09 09:02:00;;;;;;;11.55;3.00;;;;;;;;;;5094439;28;20074;-69
2021/09/09 09:04:27;;;;;;;9.30;2.53;;;;;;;;;;5094118;28;20051;-69
2021/09/09 09:06:53;;;;;;;13.68;2.72;;;;;;;;;;5094430;28;20031;-69
2021/09/09 09:09:23;;;;;;;8.35;2.90;;;;;;;;;;5094367;28;20106;-69
2021/09/09 09:11:52;;;;;;;6.70;2.88;;;;;;;;;;5094181;28;20028;-70
2021/09/09 09:14:22;;;;;;;12.27;2.17;;;;;;;;;;5094358;28;20111;-69
2021/09/09 09:16:52;;;;;;;8.77;3.00;;;;;;;;;;5094303;28;20036;-69
2021/09/09 09:19:25;;;;;;;5.25;2.70;;;;;;;;;;5094079;28;20032;-69
2021/09/09 09:21:58;;;;;;;12.18;2.97;;;;;;;;;;5094240;28;20047;-69
2021/09/09 09:24:26;;;;;;;7.47;2.72;;;;;;;;;;5094122;28;20066;-69
2021/09/09 09:27:05;;;;;;;8.55;2.65;;;;;;;;;;5093664;28;20038;-68
2021/09/09 09:29:31;;;;;;;12.45;2.95;;;;;;;;;;5094122;28;20040;-69
2021/09/09 09:32:09;;;;;;;5.35;2.70;;;;;;;;;;5093580;28;20048;-69
2021/09/09 09:34:35;;;;;;;9.23;2.85;;;;;;;;;;5094003;28;20029;-69
2021/09/09 09:37:01;;;;;;;11.18;3.22;;;;;;;;;;5093801;28;20081;-69
2021/09/09 09:39:27;;;;;;;9.82;3.10;;;;;;;;;;5093746;28;20036;-69
2021/09/09 09:41:53;;;;;;;10.52;2.90;;;;;;;;;;5093789;28;20033;-69
2021/09/09 09:44:27;;;;;;;6.50;3.38;;;;;;;;;;5093836;28;20429;-69
2021/09/09 09:46:53;;;;;;;8.32;3.13;;;;;;;;;;5093862;28;20060;-69
2021/09/09 09:49:25;;;;;;;9.40;3.08;;;;;;;;;;5054369;28;1123094;-69
2021/09/09 09:51:51;;;;;;;;;;;;;;;;;;5095084;28;20062;-69
2021/09/09 09:54:18;;;;;;;9.00;3.63;;;;;;;;;;5094606;28;19911;-69
2021/09/09 09:56:45;;;;;;;6.03;2.78;;;;;;;;;;5093260;28;20507;-69
2021/09/09 09:59:11;;;;;;;6.65;3.13;;;;;;;;;;5094543;28;20103;-69
2021/09/09 10:01:37;;;;;;;6.63;2.97;;;;;;;;;;5094733;28;20388;-69
2021/09/09 10:04:05;;;;;;;9.52;2.88;;;;;;;;;;5094232;28;20039;-69
2021/09/09 10:06:33;;;;;;;7.57;3.08;;;;;;;;;;5094342;28;20039;-69
2021/09/09 10:08:59;;;;;;;8.55;3.08;;;;;;;;;;5094203;28;20032;-69
2021/09/09 10:11:25;;;;;;;10.18;3.40;;;;;;;;;;5094036;28;20052;-69
2021/09/09 10:13:52;;;;;;;7.93;2.88;;;;;;;;;;5093791;28;20024;-69
2021/09/09 10:16:20;;;;;;;8.35;3.25;;;;;;;;;;5093996;28;20028;-69
2021/09/09 10:18:46;;;;;;;10.52;3.13;;;;;;;;;;5094005;28;20032;-69
2021/09/09 10:21:13;;;;;;;3.75;2.83;;;;;;;;;;5094008;28;20086;-69
2021/09/09 10:23:39;;;;;;;13.38;3.00;;;;;;;;;;5093826;28;20153;-69
2021/09/09 10:26:05;;;;;;;6.53;3.22;;;;;;;;;;5093750;28;20025;-69
2021/09/09 10:28:41;;;;;;;7.72;3.05;;;;;;;;;;5093667;28;20039;-69
2021/09/09 10:31:10;;;;;;;8.27;3.65;;;;;;;;;;5093881;28;20040;-69
2021/09/09 10:33:40;;;;;;;8.48;3.08;;;;;;;;;;5093696;28;20081;-69
2021/09/09 10:36:26;;;;;;;10.52;3.50;;;;;;;;;;5093920;28;20066;-69
2021/09/09 10:38:52;;;;;;;5.32;3.33;;;;;;;;;;5093550;28;20036;-69
2021/09/09 10:41:27;;;;;;;5.13;3.15;;;;;;;;;;5093889;28;20485;-69
2021/09/09 10:43:57;;;;;;;4.97;3.00;;;;;;;;;;5093815;28;20082;-68
2021/09/09 10:46:29;;;;;;;3.97;2.92;;;;;;;;;;5093400;28;20045;-69
2021/09/09 10:49:09;;;;;;;5.75;3.10;;;;;;;;;;5093472;28;20048;-70
2021/09/09 10:51:35;;;;;;;8.48;3.28;;;;;;;;;;5093584;28;20490;-69
2021/09/09 10:54:02;;;;;;;12.93;3.00;;;;;;;;;;5093398;28;20173;-69
2021/09/09 10:56:28;;;;;;;7.03;3.20;;;;;;;;;;5093326;28;20062;-69
2021/09/09 10:59:14;;;;;;;10.98;3.22;;;;;;;;;;5093094;28;20039;-69
2021/09/09 11:01:47;;;;;;;16.75;3.58;;;;;;;;;;5093293;28;20143;-69
2021/09/09 11:04:25;;;;;;;4.43;2.90;;;;;;;;;;5093272;28;20040;-68
2021/09/09 11:06:51;;;;;;;6.10;2.83;;;;;;;;;;5093023;28;20115;-69
2021/09/09 11:09:17;;;;;;;9.48;3.17;;;;;;;;;;5093426;28;20078;-68
2021/09/09 11:11:46;;;;;;;4.80;2.80;;;;;;;;;;5092946;28;20032;-68
2021/09/09 11:14:13;;;;;;;5.53;2.85;;;;;;;;;;5093015;28;20028;-68
2021/09/09 11:16:40;;;;;;;5.35;2.53;;;;;;;;;;5093215;28;20051;-68
2021/09/09 11:19:07;;;;;;;8.10;3.00;;;;;;;;;;5093363;28;20507;-68
2021/09/09 11:21:35;;;;;;;5.68;2.75;;;;;;;;;;5093043;28;20404;-68
2021/09/09 11:24:03;;;;;;;4.78;3.20;;;;;;;;;;5093247;28;20075;-68
2021/09/09 11:26:29;;;;;;;6.03;3.20;;;;;;;;;;5093066;28;20028;-68
2021/09/09 11:28:56;;;;;;;7.03;3.10;;;;;;;;;;5093073;28;20107;-69
2021/09/09 11:31:26;;;;;;;8.38;2.70;;;;;;;;;;5092869;28;20042;-69
2021/09/09 11:33:52;;;;;;;7.55;3.30;;;;;;;;;;5092951;28;20577;-68
2021/09/09 11:36:19;;;;;;;3.90;2.85;;;;;;;;;;5092957;28;20036;-68
2021/09/09 11:38:45;;;;;;;11.23;3.28;;;;;;;;;;5093004;28;20115;-68
2021/09/09 11:41:11;;;;;;;5.85;2.88;;;;;;;;;;5093104;28;20047;-68
2021/09/09 11:43:38;;;;;;;4.75;3.08;;;;;;;;;;5093329;28;20039;-68
2021/09/09 11:46:04;;;;;;;7.88;3.00;;;;;;;;;;5093017;28;20038;-68
2021/09/09 11:48:30;;;;;;;18.20;2.95;;;;;;;;;;5092711;28;20032;-68
2021/09/09 11:50:56;;;;;;;7.15;3.00;;;;;;;;;;5092687;28;20040;-69
2021/09/09 11:53:26;;;;;;;6.28;2.88;;;;;;;;;;5092930;28;20507;-68
2021/09/09 11:55:53;;;;;;;4.15;2.88;;;;;;;;;;5092803;28;20028;-68
2021/09/09 11:58:33;;;;;;;4.60;3.03;;;;;;;;;;5092675;28;20032;-68
2021/09/09 12:01:00;;;;;;;7.75;2.97;;;;;;;;;;5092639;28;20040;-68
2021/09/09 12:03:27;;;;;;;7.10;3.10;;;;;;;;;;5092876;28;20036;-68
2021/09/09 12:05:53;;;;;;;9.45;3.20;;;;;;;;;;5092750;28;20040;-68
2021/09/09 12:08:20;;;;;;;8.35;3.92;;;;;;;;;;5092889;28;20500;-68
2021/09/09 12:10:46;;;;;;;4.30;2.78;;;;;;;;;;5092665;28;20032;-68
2021/09/09 12:13:12;;;;;;;6.90;2.65;;;;;;;;;;5092767;28;20500;-68
2021/09/09 12:15:38;;;;;;;15.10;3.08;;;;;;;;;;5092467;28;20040;-68
2021/09/09 12:18:11;;;;;;;6.88;3.25;;;;;;;;;;5092452;28;20117;-68
2021/09/09 12:20:38;;;;;;;6.07;3.15;;;;;;;;;;5095507;28;20059;-68
2021/09/09 12:23:04;;;;;;;6.28;2.80;;;;;;;;;;5096247;28;20028;-68
2021/09/09 12:25:35;;;;;;;5.47;2.90;;;;;;;;;;5096301;28;20127;-68
2021/09/09 12:28:01;;;;;;;13.85;3.10;;;;;;;;;;5096324;28;20032;-68
2021/09/09 12:30:29;;;;;;;8.63;3.28;;;;;;;;;;5095973;28;20507;-69
2021/09/09 12:32:55;;;;;;;10.55;2.65;;;;;;;;;;5096190;28;20111;-68
2021/09/09 12:35:23;;;;;;;9.55;2.72;;;;;;;;;;5096180;28;20039;-68
2021/09/09 12:38:06;;;;;;;7.68;3.35;;;;;;;;;;5096096;28;20032;-69
2021/09/09 12:40:43;;;;;;;5.72;2.83;;;;;;;;;;5095928;28;20028;-68
2021/09/09 12:43:25;;;;;;;10.02;2.80;;;;;;;;;;5096005;28;20032;-68
2021/09/09 12:45:51;;;;;;;5.90;3.50;;;;;;;;;;5096250;28;20484;-68
2021/09/09 12:48:17;;;;;;;8.13;3.00;;;;;;;;;;5095594;28;20032;-68
2021/09/09 12:50:58;;;;;;;7.68;2.97;;;;;;;;;;5095546;28;20059;-69
2021/09/09 12:53:27;;;;;;;12.40;3.17;;;;;;;;;;5095514;28;20031;-68
2021/09/09 12:55:56;;;;;;;6.72;3.10;;;;;;;;;;5095532;28;20043;-68
2021/09/09 12:58:23;;;;;;;6.85;3.28;;;;;;;;;;5095796;28;20028;-69
2021/09/09 13:00:49;;;;;;;6.00;3.33;;;;;;;;;;5095690;28;20119;-68
2021/09/09 13:03:15;;;;;;;5.20;2.83;;;;;;;;;;5095384;28;20107;-68
2021/09/09 13:05:41;;;;;;;6.82;3.20;;;;;;;;;;5095458;28;20055;-68
2021/09/09 13:08:07;;;;;;;8.70;3.17;;;;;;;;;;5095359;28;20055;-68
2021/09/09 13:10:33;;;;;;;8.02;3.03;;;;;;;;;;5095391;28;20044;-68
2021/09/09 13:12:59;;;;;;;9.70;2.80;;;;;;;;;;5095381;28;20028;-68
2021/09/09 13:15:25;;;;;;;9.57;3.25;;;;;;;;;;5095328;28;20396;-69
2021/09/09 13:17:52;;;;;;;4.68;2.70;;;;;;;;;;5095250;28;20025;-68
2021/09/09 13:20:20;;;;;;;5.05;2.80;;;;;;;;;;5095147;28;20032;-69
2021/09/09 13:22:46;;;;;;;5.70;2.92;;;;;;;;;;5095057;28;20434;-68
2021/09/09 13:25:12;;;;;;;7.65;3.10;;;;;;;;;;5094795;28;20044;-68
2021/09/09 13:27:38;;;;;;;10.55;2.83;;;;;;;;;;5094956;28;20052;-68
2021/09/09 13:30:05;;;;;;;7.88;3.53;;;;;;;;;;5094641;28;20396;-69
2021/09/09 13:32:31;;;;;;;10.30;3.10;;;;;;;;;;5094758;28;20031;-68
2021/09/09 13:34:57;;;;;;;5.72;2.70;;;;;;;;;;5094906;28;20036;-68
2021/09/09 13:37:23;;;;;;;5.57;2.70;;;;;;;;;;5094827;28;20093;-68
2021/09/09 13:39:49;;;;;;;7.43;3.13;;;;;;;;;;5094802;28;20384;-68
2021/09/09 13:42:15;;;;;;;10.73;2.72;;;;;;;;;;5095092;28;20054;-68
2021/09/09 13:44:41;;;;;;;8.75;2.70;;;;;;;;;;5094665;28;20047;-68
2021/09/09 13:47:07;;;;;;;8.00;3.05;;;;;;;;;;5094359;28;20107;-68
2021/09/09 13:49:33;;;;;;;11.70;3.03;;;;;;;;;;5094556;28;20126;-69
2021/09/09 13:51:59;;;;;;;5.18;2.70;;;;;;;;;;5094743;28;20112;-68
2021/09/09 13:54:25;;;;;;;8.50;3.10;;;;;;;;;;5094355;28;20051;-68
2021/09/09 13:56:51;;;;;;;8.70;3.10;;;;;;;;;;5094566;28;20397;-68
2021/09/09 13:59:17;;;;;;;4.18;3.13;;;;;;;;;;5094529;28;20392;-68
2021/09/09 14:01:43;;;;;;;5.18;3.13;;;;;;;;;;5094471;28;20032;-68
2021/09/09 14:04:09;;;;;;;4.32;2.88;;;;;;;;;;5094122;28;20516;-68
2021/09/09 14:06:36;;;;;;;6.15;2.75;;;;;;;;;;5094234;28;20029;-68
2021/09/09 14:09:03;;;;;;;6.03;3.20;;;;;;;;;;5094415;28;20451;-68
2021/09/09 14:11:30;;;;;;;6.70;2.90;;;;;;;;;;5094221;28;20089;-68
2021/09/09 14:13:56;;;;;;;7.68;3.15;;;;;;;;;;5093991;28;20032;-68
2021/09/09 14:16:23;;;;;;;7.60;2.75;;;;;;;;;;5094191;28;20107;-68
2021/09/09 14:18:49;;;;;;;6.97;3.28;;;;;;;;;;5094243;28;20164;-68
2021/09/09 14:21:15;;;;;;;8.02;2.90;;;;;;;;;;5094062;28;20053;-68
2021/09/09 14:23:41;;;;;;;11.90;3.35;;;;;;;;;;5093933;28;20613;-68
2021/09/09 14:26:07;;;;;;;9.73;3.17;;;;;;;;;;5094071;28;20084;-68
2021/09/09 14:28:34;;;;;;;9.43;3.25;;;;;;;;;;5093618;28;20062;-69
2021/09/09 14:31:00;;;;;;;12.35;3.33;;;;;;;;;;5094073;28;20037;-68
2021/09/09 14:33:26;;;;;;;6.40;3.10;;;;;;;;;;5094093;28;20042;-68
2021/09/09 14:35:52;;;;;;;10.65;2.97;;;;;;;;;;5093810;28;20034;-68
2021/09/09 14:38:18;;;;;;;5.28;2.70;;;;;;;;;;5093491;28;20036;-68